sensor_id;sensor_type;location;lat;lon;timestamp;P1;durP1;ratioP1;P2;durP2;ratioP2
55150;SDS011;41041;43.162;20.538;2023-05-10T00:02:16;5.95;;;2.22;;
55150;SDS011;41041;43.162;20.538;2023-05-10T00:04:42;5.38;;;2.50;;
55150;SDS011;41041;43.162;20.538;2023-05-10T00:07:08;4.70;;;2.50;;
55150;SDS011;41041;43.162;20.538;2023-05-10T00:09:35;4.53;;;2.35;;
55150;SDS011;41041;43.162;20.538;2023-05-10T00:12:01;3.22;;;2.08;;
55150;SDS011;41041;43.162;20.538;2023-05-10T00:14:27;5.15;;;1.90;;
55150;SDS011;41041;43.162;20.538;2023-05-10T00:16:53;4.80;;;1.73;;
55150;SDS011;41041;43.162;20.538;2023-05-10T00:19:19;4.50;;;1.88;;
55150;SDS011;41041;43.162;20.538;2023-05-10T00:21:45;2.42;;;1.80;;
55150;SDS011;41041;43.162;20.538;2023-05-10T00:24:12;7.72;;;1.80;;
55150;SDS011;41041;43.162;20.538;2023-05-10T00:26:38;7.20;;;2.60;;
55150;SDS011;41041;43.162;20.538;2023-05-10T00:29:04;4.30;;;2.03;;
55150;SDS011;41041;43.162;20.538;2023-05-10T00:31:30;3.20;;;2.00;;
55150;SDS011;41041;43.162;20.538;2023-05-10T00:33:56;3.42;;;1.90;;
55150;SDS011;41041;43.162;20.538;2023-05-10T00:36:22;4.07;;;1.98;;
55150;SDS011;41041;43.162;20.538;2023-05-10T00:38:48;3.97;;;2.10;;
55150;SDS011;41041;43.162;20.538;2023-05-10T00:41:14;4.88;;;2.20;;
55150;SDS011;41041;43.162;20.538;2023-05-10T00:43:47;3.40;;;2.05;;
55150;SDS011;41041;43.162;20.538;2023-05-10T00:46:14;5.68;;;2.13;;
55150;SDS011;41041;43.162;20.538;2023-05-10T00:48:40;6.10;;;1.90;;
55150;SDS011;41041;43.162;20.538;2023-05-10T00:53:56;4.53;;;1.90;;
55150;SDS011;41041;43.162;20.538;2023-05-10T00:56:22;4.00;;;2.05;;
55150;SDS011;41041;43.162;20.538;2023-05-10T01:01:35;4.35;;;2.20;;
55150;SDS011;41041;43.162;20.538;2023-05-10T01:04:01;4.30;;;2.10;;
55150;SDS011;41041;43.162;20.538;2023-05-10T01:06:28;4.45;;;2.00;;
55150;SDS011;41041;43.162;20.538;2023-05-10T01:08:54;4.25;;;2.15;;
55150;SDS011;41041;43.162;20.538;2023-05-10T01:11:21;3.42;;;2.03;;
55150;SDS011;41041;43.162;20.538;2023-05-10T01:13:49;3.40;;;2.20;;
55150;SDS011;41041;43.162;20.538;2023-05-10T01:16:16;3.38;;;1.83;;
55150;SDS011;41041;43.162;20.538;2023-05-10T01:18:42;3.75;;;2.35;;
55150;SDS011;41041;43.162;20.538;2023-05-10T01:28:58;3.90;;;2.03;;
55150;SDS011;41041;43.162;20.538;2023-05-10T01:31:33;3.85;;;2.25;;
55150;SDS011;41041;43.162;20.538;2023-05-10T01:34:16;3.40;;;2.10;;
55150;SDS011;41041;43.162;20.538;2023-05-10T01:36:57;4.30;;;2.03;;
55150;SDS011;41041;43.162;20.538;2023-05-10T01:39:25;4.97;;;2.33;;
55150;SDS011;41041;43.162;20.538;2023-05-10T01:49:50;4.05;;;2.13;;
55150;SDS011;41041;43.162;20.538;2023-05-10T01:52:16;4.00;;;2.17;;
55150;SDS011;41041;43.162;20.538;2023-05-10T01:54:51;3.88;;;1.95;;
55150;SDS011;41041;43.162;20.538;2023-05-10T01:57:19;3.47;;;2.00;;
55150;SDS011;41041;43.162;20.538;2023-05-10T01:59:46;5.40;;;2.17;;
55150;SDS011;41041;43.162;20.538;2023-05-10T02:05:11;5.63;;;2.40;;
55150;SDS011;41041;43.162;20.538;2023-05-10T02:07:38;4.60;;;2.20;;
55150;SDS011;41041;43.162;20.538;2023-05-10T02:10:05;3.42;;;1.95;;
55150;SDS011;41041;43.162;20.538;2023-05-10T02:12:35;3.25;;;1.90;;
55150;SDS011;41041;43.162;20.538;2023-05-10T02:15:02;6.57;;;2.20;;
55150;SDS011;41041;43.162;20.538;2023-05-10T02:17:30;4.18;;;2.13;;
55150;SDS011;41041;43.162;20.538;2023-05-10T02:19:57;5.13;;;2.20;;
55150;SDS011;41041;43.162;20.538;2023-05-10T02:22:24;3.30;;;2.05;;
55150;SDS011;41041;43.162;20.538;2023-05-10T02:24:51;6.18;;;2.40;;
55150;SDS011;41041;43.162;20.538;2023-05-10T02:27:17;4.15;;;2.20;;
55150;SDS011;41041;43.162;20.538;2023-05-10T02:29:45;4.75;;;2.17;;
55150;SDS011;41041;43.162;20.538;2023-05-10T02:32:12;6.35;;;2.15;;
55150;SDS011;41041;43.162;20.538;2023-05-10T02:34:39;3.95;;;2.30;;
55150;SDS011;41041;43.162;20.538;2023-05-10T02:37:06;4.25;;;2.33;;
55150;SDS011;41041;43.162;20.538;2023-05-10T02:39:32;3.90;;;2.20;;
55150;SDS011;41041;43.162;20.538;2023-05-10T02:41:59;4.65;;;2.20;;
55150;SDS011;41041;43.162;20.538;2023-05-10T02:44:26;4.40;;;2.30;;
55150;SDS011;41041;43.162;20.538;2023-05-10T02:46:53;5.32;;;2.17;;
55150;SDS011;41041;43.162;20.538;2023-05-10T02:49:21;4.88;;;2.08;;
55150;SDS011;41041;43.162;20.538;2023-05-10T02:51:49;9.05;;;2.53;;
55150;SDS011;41041;43.162;20.538;2023-05-10T02:54:18;8.52;;;2.22;;
55150;SDS011;41041;43.162;20.538;2023-05-10T02:56:50;5.10;;;2.20;;
55150;SDS011;41041;43.162;20.538;2023-05-10T02:59:17;5.15;;;2.58;;
55150;SDS011;41041;43.162;20.538;2023-05-10T03:01:43;4.45;;;2.20;;
55150;SDS011;41041;43.162;20.538;2023-05-10T03:04:09;3.38;;;2.00;;
55150;SDS011;41041;43.162;20.538;2023-05-10T03:06:35;3.60;;;2.33;;
55150;SDS011;41041;43.162;20.538;2023-05-10T03:09:02;4.15;;;2.30;;
55150;SDS011;41041;43.162;20.538;2023-05-10T03:11:39;5.45;;;2.00;;
55150;SDS011;41041;43.162;20.538;2023-05-10T03:16:41;4.07;;;2.40;;
55150;SDS011;41041;43.162;20.538;2023-05-10T03:21:38;3.90;;;2.50;;
55150;SDS011;41041;43.162;20.538;2023-05-10T03:24:16;6.72;;;2.05;;
55150;SDS011;41041;43.162;20.538;2023-05-10T03:26:44;4.50;;;2.13;;
55150;SDS011;41041;43.162;20.538;2023-05-10T03:29:14;5.90;;;2.03;;
55150;SDS011;41041;43.162;20.538;2023-05-10T03:31:40;5.97;;;2.53;;
55150;SDS011;41041;43.162;20.538;2023-05-10T03:34:06;5.53;;;2.22;;
55150;SDS011;41041;43.162;20.538;2023-05-10T03:36:33;4.03;;;2.50;;
55150;SDS011;41041;43.162;20.538;2023-05-10T03:38:59;4.70;;;2.35;;
55150;SDS011;41041;43.162;20.538;2023-05-10T03:41:25;6.75;;;2.42;;
55150;SDS011;41041;43.162;20.538;2023-05-10T03:43:51;6.53;;;2.42;;
55150;SDS011;41041;43.162;20.538;2023-05-10T03:46:17;5.88;;;2.67;;
55150;SDS011;41041;43.162;20.538;2023-05-10T03:48:43;4.53;;;2.22;;
55150;SDS011;41041;43.162;20.538;2023-05-10T03:51:10;3.60;;;2.10;;
55150;SDS011;41041;43.162;20.538;2023-05-10T03:53:36;5.35;;;2.10;;
55150;SDS011;41041;43.162;20.538;2023-05-10T03:56:02;8.52;;;2.78;;
55150;SDS011;41041;43.162;20.538;2023-05-10T03:58:28;6.90;;;2.25;;
55150;SDS011;41041;43.162;20.538;2023-05-10T04:00:54;5.28;;;1.98;;
55150;SDS011;41041;43.162;20.538;2023-05-10T04:03:21;6.38;;;2.60;;
55150;SDS011;41041;43.162;20.538;2023-05-10T04:05:47;5.32;;;2.60;;
55150;SDS011;41041;43.162;20.538;2023-05-10T04:08:13;5.35;;;2.40;;
55150;SDS011;41041;43.162;20.538;2023-05-10T04:10:41;6.13;;;2.13;;
55150;SDS011;41041;43.162;20.538;2023-05-10T04:13:07;5.20;;;2.35;;
55150;SDS011;41041;43.162;20.538;2023-05-10T04:15:33;6.00;;;2.70;;
55150;SDS011;41041;43.162;20.538;2023-05-10T04:18:00;5.00;;;2.20;;
55150;SDS011;41041;43.162;20.538;2023-05-10T04:20:26;7.10;;;2.65;;
55150;SDS011;41041;43.162;20.538;2023-05-10T04:22:52;6.10;;;2.30;;
55150;SDS011;41041;43.162;20.538;2023-05-10T04:25:18;6.03;;;2.25;;
55150;SDS011;41041;43.162;20.538;2023-05-10T04:27:45;6.30;;;2.53;;
55150;SDS011;41041;43.162;20.538;2023-05-10T04:30:11;5.18;;;2.47;;
55150;SDS011;41041;43.162;20.538;2023-05-10T04:32:37;5.45;;;2.42;;
55150;SDS011;41041;43.162;20.538;2023-05-10T04:35:03;6.18;;;2.60;;
55150;SDS011;41041;43.162;20.538;2023-05-10T04:37:29;6.93;;;2.38;;
55150;SDS011;41041;43.162;20.538;2023-05-10T04:39:55;6.43;;;2.60;;
55150;SDS011;41041;43.162;20.538;2023-05-10T04:42:21;8.55;;;2.40;;
55150;SDS011;41041;43.162;20.538;2023-05-10T04:47:18;10.40;;;2.70;;
55150;SDS011;41041;43.162;20.538;2023-05-10T04:49:44;12.13;;;2.85;;
55150;SDS011;41041;43.162;20.538;2023-05-10T04:52:11;15.07;;;3.00;;
55150;SDS011;41041;43.162;20.538;2023-05-10T04:54:37;23.75;;;3.42;;
55150;SDS011;41041;43.162;20.538;2023-05-10T04:57:15;11.25;;;3.00;;
55150;SDS011;41041;43.162;20.538;2023-05-10T04:59:48;15.32;;;3.22;;
55150;SDS011;41041;43.162;20.538;2023-05-10T05:02:14;4.80;;;2.40;;
55150;SDS011;41041;43.162;20.538;2023-05-10T05:04:41;10.70;;;2.65;;
55150;SDS011;41041;43.162;20.538;2023-05-10T05:07:07;18.08;;;2.60;;
55150;SDS011;41041;43.162;20.538;2023-05-10T05:09:33;11.13;;;2.72;;
55150;SDS011;41041;43.162;20.538;2023-05-10T05:14:39;10.68;;;2.80;;
55150;SDS011;41041;43.162;20.538;2023-05-10T05:17:06;21.27;;;2.83;;
55150;SDS011;41041;43.162;20.538;2023-05-10T05:19:33;8.00;;;3.10;;
55150;SDS011;41041;43.162;20.538;2023-05-10T05:21:59;5.63;;;2.70;;
55150;SDS011;41041;43.162;20.538;2023-05-10T05:24:25;7.40;;;2.58;;
55150;SDS011;41041;43.162;20.538;2023-05-10T05:26:51;12.60;;;2.55;;
55150;SDS011;41041;43.162;20.538;2023-05-10T05:29:17;4.53;;;2.60;;
55150;SDS011;41041;43.162;20.538;2023-05-10T05:31:43;8.27;;;3.00;;
55150;SDS011;41041;43.162;20.538;2023-05-10T05:34:09;13.30;;;2.78;;
55150;SDS011;41041;43.162;20.538;2023-05-10T05:36:36;10.18;;;3.10;;
55150;SDS011;41041;43.162;20.538;2023-05-10T05:39:03;12.10;;;3.55;;
55150;SDS011;41041;43.162;20.538;2023-05-10T05:41:41;6.45;;;2.80;;
55150;SDS011;41041;43.162;20.538;2023-05-10T05:44:07;7.35;;;2.60;;
55150;SDS011;41041;43.162;20.538;2023-05-10T05:46:33;6.60;;;2.50;;
55150;SDS011;41041;43.162;20.538;2023-05-10T05:48:59;6.95;;;2.50;;
55150;SDS011;41041;43.162;20.538;2023-05-10T05:51:26;5.50;;;2.20;;
55150;SDS011;41041;43.162;20.538;2023-05-10T05:53:52;7.40;;;2.30;;
55150;SDS011;41041;43.162;20.538;2023-05-10T05:56:18;5.80;;;2.55;;
55150;SDS011;41041;43.162;20.538;2023-05-10T05:58:49;5.45;;;2.65;;
55150;SDS011;41041;43.162;20.538;2023-05-10T06:01:15;5.93;;;2.95;;
55150;SDS011;41041;43.162;20.538;2023-05-10T06:03:41;5.57;;;2.92;;
55150;SDS011;41041;43.162;20.538;2023-05-10T06:06:08;11.40;;;3.05;;
55150;SDS011;41041;43.162;20.538;2023-05-10T06:08:34;5.57;;;2.70;;
55150;SDS011;41041;43.162;20.538;2023-05-10T06:13:39;5.85;;;3.13;;
55150;SDS011;41041;43.162;20.538;2023-05-10T06:16:07;8.30;;;2.92;;
55150;SDS011;41041;43.162;20.538;2023-05-10T06:21:37;35.00;;;18.25;;
55150;SDS011;41041;43.162;20.538;2023-05-10T06:24:03;17.02;;;8.75;;
55150;SDS011;41041;43.162;20.538;2023-05-10T06:26:42;11.02;;;5.90;;
55150;SDS011;41041;43.162;20.538;2023-05-10T06:29:09;12.23;;;6.55;;
55150;SDS011;41041;43.162;20.538;2023-05-10T06:31:35;9.93;;;4.60;;
55150;SDS011;41041;43.162;20.538;2023-05-10T06:34:16;11.15;;;3.85;;
55150;SDS011;41041;43.162;20.538;2023-05-10T06:36:42;12.30;;;5.22;;
55150;SDS011;41041;43.162;20.538;2023-05-10T06:39:09;11.48;;;5.00;;
55150;SDS011;41041;43.162;20.538;2023-05-10T06:41:39;12.13;;;3.40;;
55150;SDS011;41041;43.162;20.538;2023-05-10T06:44:05;5.35;;;3.10;;
55150;SDS011;41041;43.162;20.538;2023-05-10T06:46:31;10.23;;;3.85;;
55150;SDS011;41041;43.162;20.538;2023-05-10T06:48:58;6.30;;;3.80;;
55150;SDS011;41041;43.162;20.538;2023-05-10T06:51:25;8.50;;;2.80;;
55150;SDS011;41041;43.162;20.538;2023-05-10T06:53:51;7.05;;;3.00;;
55150;SDS011;41041;43.162;20.538;2023-05-10T06:59:23;10.18;;;2.20;;
55150;SDS011;41041;43.162;20.538;2023-05-10T07:01:50;7.47;;;1.92;;
55150;SDS011;41041;43.162;20.538;2023-05-10T07:04:16;6.80;;;1.80;;
55150;SDS011;41041;43.162;20.538;2023-05-10T07:06:42;3.90;;;1.67;;
55150;SDS011;41041;43.162;20.538;2023-05-10T07:09:09;9.93;;;3.10;;
55150;SDS011;41041;43.162;20.538;2023-05-10T07:11:36;6.90;;;3.28;;
55150;SDS011;41041;43.162;20.538;2023-05-10T07:14:02;4.43;;;1.55;;
55150;SDS011;41041;43.162;20.538;2023-05-10T07:16:31;6.38;;;1.58;;
55150;SDS011;41041;43.162;20.538;2023-05-10T07:18:58;3.72;;;1.60;;
55150;SDS011;41041;43.162;20.538;2023-05-10T07:21:24;6.85;;;1.95;;
55150;SDS011;41041;43.162;20.538;2023-05-10T07:23:53;4.90;;;1.70;;
55150;SDS011;41041;43.162;20.538;2023-05-10T07:26:19;12.23;;;1.80;;
55150;SDS011;41041;43.162;20.538;2023-05-10T07:28:46;5.13;;;1.58;;
55150;SDS011;41041;43.162;20.538;2023-05-10T07:31:12;4.40;;;1.67;;
55150;SDS011;41041;43.162;20.538;2023-05-10T07:36:41;5.50;;;1.92;;
55150;SDS011;41041;43.162;20.538;2023-05-10T07:39:08;4.30;;;1.92;;
55150;SDS011;41041;43.162;20.538;2023-05-10T07:41:34;7.50;;;1.95;;
55150;SDS011;41041;43.162;20.538;2023-05-10T07:44:02;5.97;;;1.90;;
55150;SDS011;41041;43.162;20.538;2023-05-10T07:46:28;16.65;;;2.00;;
55150;SDS011;41041;43.162;20.538;2023-05-10T07:48:55;5.55;;;1.75;;
55150;SDS011;41041;43.162;20.538;2023-05-10T07:51:21;8.70;;;2.05;;
55150;SDS011;41041;43.162;20.538;2023-05-10T07:58:46;3.97;;;1.50;;
55150;SDS011;41041;43.162;20.538;2023-05-10T08:01:13;3.67;;;1.48;;
55150;SDS011;41041;43.162;20.538;2023-05-10T08:03:39;5.00;;;1.50;;
55150;SDS011;41041;43.162;20.538;2023-05-10T08:06:14;4.25;;;1.35;;
55150;SDS011;41041;43.162;20.538;2023-05-10T08:08:40;7.85;;;1.50;;
55150;SDS011;41041;43.162;20.538;2023-05-10T08:11:07;3.95;;;1.15;;
55150;SDS011;41041;43.162;20.538;2023-05-10T08:13:33;6.63;;;1.35;;
55150;SDS011;41041;43.162;20.538;2023-05-10T08:18:48;8.48;;;1.48;;
55150;SDS011;41041;43.162;20.538;2023-05-10T08:21:17;7.70;;;1.38;;
55150;SDS011;41041;43.162;20.538;2023-05-10T08:23:43;4.40;;;1.27;;
55150;SDS011;41041;43.162;20.538;2023-05-10T08:26:10;4.43;;;1.40;;
55150;SDS011;41041;43.162;20.538;2023-05-10T08:28:36;3.58;;;1.10;;
55150;SDS011;41041;43.162;20.538;2023-05-10T08:33:47;3.88;;;1.80;;
55150;SDS011;41041;43.162;20.538;2023-05-10T08:36:13;3.22;;;1.80;;
55150;SDS011;41041;43.162;20.538;2023-05-10T08:38:44;2.60;;;1.00;;
55150;SDS011;41041;43.162;20.538;2023-05-10T08:41:10;2.88;;;1.08;;
55150;SDS011;41041;43.162;20.538;2023-05-10T08:46:35;3.50;;;1.40;;
55150;SDS011;41041;43.162;20.538;2023-05-10T08:49:04;3.20;;;1.23;;
55150;SDS011;41041;43.162;20.538;2023-05-10T08:51:36;2.58;;;1.30;;
55150;SDS011;41041;43.162;20.538;2023-05-10T08:54:02;4.43;;;1.17;;
55150;SDS011;41041;43.162;20.538;2023-05-10T08:56:29;3.55;;;1.00;;
55150;SDS011;41041;43.162;20.538;2023-05-10T08:58:55;2.58;;;1.15;;
55150;SDS011;41041;43.162;20.538;2023-05-10T09:01:22;4.38;;;1.20;;
55150;SDS011;41041;43.162;20.538;2023-05-10T09:03:48;3.65;;;1.13;;
55150;SDS011;41041;43.162;20.538;2023-05-10T09:06:14;3.05;;;1.25;;
55150;SDS011;41041;43.162;20.538;2023-05-10T09:08:41;4.78;;;1.23;;
55150;SDS011;41041;43.162;20.538;2023-05-10T09:11:08;3.85;;;1.20;;
55150;SDS011;41041;43.162;20.538;2023-05-10T09:13:35;2.78;;;1.08;;
55150;SDS011;41041;43.162;20.538;2023-05-10T09:16:02;1.50;;;0.88;;
55150;SDS011;41041;43.162;20.538;2023-05-10T09:21:25;5.32;;;1.40;;
55150;SDS011;41041;43.162;20.538;2023-05-10T09:23:51;2.25;;;0.80;;
55150;SDS011;41041;43.162;20.538;2023-05-10T09:26:28;2.63;;;0.80;;
55150;SDS011;41041;43.162;20.538;2023-05-10T09:28:58;5.30;;;1.00;;
55150;SDS011;41041;43.162;20.538;2023-05-10T09:31:24;2.50;;;0.80;;
55150;SDS011;41041;43.162;20.538;2023-05-10T09:34:15;1.00;;;0.60;;
55150;SDS011;41041;43.162;20.538;2023-05-10T09:36:55;1.30;;;0.60;;
55150;SDS011;41041;43.162;20.538;2023-05-10T09:42:00;3.58;;;1.00;;
55150;SDS011;41041;43.162;20.538;2023-05-10T09:44:31;1.35;;;0.63;;
55150;SDS011;41041;43.162;20.538;2023-05-10T09:46:58;5.50;;;1.48;;
55150;SDS011;41041;43.162;20.538;2023-05-10T09:49:24;1.83;;;0.70;;
55150;SDS011;41041;43.162;20.538;2023-05-10T09:52:00;1.40;;;0.70;;
55150;SDS011;41041;43.162;20.538;2023-05-10T09:54:26;3.15;;;1.17;;
55150;SDS011;41041;43.162;20.538;2023-05-10T09:59:53;1.45;;;0.65;;
55150;SDS011;41041;43.162;20.538;2023-05-10T10:02:19;2.67;;;0.80;;
55150;SDS011;41041;43.162;20.538;2023-05-10T10:04:48;1.92;;;1.00;;
55150;SDS011;41041;43.162;20.538;2023-05-10T10:07:15;3.92;;;1.40;;
55150;SDS011;41041;43.162;20.538;2023-05-10T10:09:47;2.35;;;1.00;;
55150;SDS011;41041;43.162;20.538;2023-05-10T10:12:14;4.60;;;1.80;;
55150;SDS011;41041;43.162;20.538;2023-05-10T10:14:40;1.58;;;1.13;;
55150;SDS011;41041;43.162;20.538;2023-05-10T10:17:06;3.83;;;0.90;;
55150;SDS011;41041;43.162;20.538;2023-05-10T10:19:33;3.75;;;1.42;;
55150;SDS011;41041;43.162;20.538;2023-05-10T10:22:02;13.85;;;1.52;;
55150;SDS011;41041;43.162;20.538;2023-05-10T10:24:46;3.28;;;0.82;;
55150;SDS011;41041;43.162;20.538;2023-05-10T10:27:27;2.53;;;1.10;;
55150;SDS011;41041;43.162;20.538;2023-05-10T10:35:11;0.90;;;0.80;;
55150;SDS011;41041;43.162;20.538;2023-05-10T10:37:41;3.75;;;1.10;;
55150;SDS011;41041;43.162;20.538;2023-05-10T10:42:55;1.63;;;1.02;;
55150;SDS011;41041;43.162;20.538;2023-05-10T10:45:22;1.00;;;0.73;;
55150;SDS011;41041;43.162;20.538;2023-05-10T10:47:48;2.72;;;1.60;;
55150;SDS011;41041;43.162;20.538;2023-05-10T10:50:14;2.28;;;1.55;;
55150;SDS011;41041;43.162;20.538;2023-05-10T10:52:44;1.55;;;1.05;;
55150;SDS011;41041;43.162;20.538;2023-05-10T10:55:12;2.88;;;1.23;;
55150;SDS011;41041;43.162;20.538;2023-05-10T11:05:49;2.80;;;1.63;;
55150;SDS011;41041;43.162;20.538;2023-05-10T11:10:34;4.45;;;1.13;;
55150;SDS011;41041;43.162;20.538;2023-05-10T11:15:33;3.97;;;1.10;;
55150;SDS011;41041;43.162;20.538;2023-05-10T11:18:00;2.88;;;1.10;;
55150;SDS011;41041;43.162;20.538;2023-05-10T11:20:41;1.50;;;1.10;;
55150;SDS011;41041;43.162;20.538;2023-05-10T11:23:11;2.95;;;1.50;;
55150;SDS011;41041;43.162;20.538;2023-05-10T11:25:41;3.47;;;1.20;;
55150;SDS011;41041;43.162;20.538;2023-05-10T11:28:07;1.67;;;1.33;;
55150;SDS011;41041;43.162;20.538;2023-05-10T11:30:33;2.95;;;1.33;;
55150;SDS011;41041;43.162;20.538;2023-05-10T11:32:59;2.58;;;1.40;;
55150;SDS011;41041;43.162;20.538;2023-05-10T11:35:27;1.90;;;1.35;;
55150;SDS011;41041;43.162;20.538;2023-05-10T11:37:53;3.70;;;1.33;;
55150;SDS011;41041;43.162;20.538;2023-05-10T11:40:21;1.83;;;1.20;;
55150;SDS011;41041;43.162;20.538;2023-05-10T11:42:49;2.85;;;1.40;;
55150;SDS011;41041;43.162;20.538;2023-05-10T11:45:15;4.28;;;1.60;;
55150;SDS011;41041;43.162;20.538;2023-05-10T11:47:43;3.22;;;1.70;;
55150;SDS011;41041;43.162;20.538;2023-05-10T11:50:10;4.32;;;1.60;;
55150;SDS011;41041;43.162;20.538;2023-05-10T11:52:36;3.65;;;1.70;;
55150;SDS011;41041;43.162;20.538;2023-05-10T11:55:02;4.60;;;1.83;;
55150;SDS011;41041;43.162;20.538;2023-05-10T11:57:29;3.05;;;1.88;;
55150;SDS011;41041;43.162;20.538;2023-05-10T11:59:56;7.95;;;1.50;;
55150;SDS011;41041;43.162;20.538;2023-05-10T12:02:22;2.65;;;1.50;;
55150;SDS011;41041;43.162;20.538;2023-05-10T12:04:49;4.82;;;1.70;;
55150;SDS011;41041;43.162;20.538;2023-05-10T12:07:16;3.80;;;1.80;;
55150;SDS011;41041;43.162;20.538;2023-05-10T12:15:17;5.20;;;1.90;;
55150;SDS011;41041;43.162;20.538;2023-05-10T12:17:44;10.50;;;2.00;;
55150;SDS011;41041;43.162;20.538;2023-05-10T12:20:18;9.80;;;2.00;;
55150;SDS011;41041;43.162;20.538;2023-05-10T12:22:45;3.10;;;1.63;;
55150;SDS011;41041;43.162;20.538;2023-05-10T12:25:12;4.60;;;1.85;;
55150;SDS011;41041;43.162;20.538;2023-05-10T12:27:57;4.28;;;1.67;;
55150;SDS011;41041;43.162;20.538;2023-05-10T12:30:27;4.50;;;1.80;;
55150;SDS011;41041;43.162;20.538;2023-05-10T12:32:53;4.90;;;2.10;;
55150;SDS011;41041;43.162;20.538;2023-05-10T12:35:20;8.20;;;2.20;;
55150;SDS011;41041;43.162;20.538;2023-05-10T12:37:53;3.25;;;2.00;;
55150;SDS011;41041;43.162;20.538;2023-05-10T12:40:19;4.47;;;2.30;;
55150;SDS011;41041;43.162;20.538;2023-05-10T12:42:45;4.97;;;2.05;;
55150;SDS011;41041;43.162;20.538;2023-05-10T12:45:11;5.25;;;1.85;;
55150;SDS011;41041;43.162;20.538;2023-05-10T12:47:38;4.20;;;2.05;;
55150;SDS011;41041;43.162;20.538;2023-05-10T12:50:04;2.42;;;1.70;;
55150;SDS011;41041;43.162;20.538;2023-05-10T12:52:30;5.85;;;2.05;;
55150;SDS011;41041;43.162;20.538;2023-05-10T12:55:05;2.65;;;1.90;;
55150;SDS011;41041;43.162;20.538;2023-05-10T12:57:32;8.25;;;2.22;;
55150;SDS011;41041;43.162;20.538;2023-05-10T12:59:58;8.27;;;2.42;;
55150;SDS011;41041;43.162;20.538;2023-05-10T13:02:30;5.93;;;2.20;;
55150;SDS011;41041;43.162;20.538;2023-05-10T13:04:57;7.28;;;2.20;;
55150;SDS011;41041;43.162;20.538;2023-05-10T13:07:23;5.25;;;2.30;;
55150;SDS011;41041;43.162;20.538;2023-05-10T13:09:49;6.47;;;2.45;;
55150;SDS011;41041;43.162;20.538;2023-05-10T13:12:15;5.20;;;2.22;;
55150;SDS011;41041;43.162;20.538;2023-05-10T13:14:42;7.50;;;2.42;;
55150;SDS011;41041;43.162;20.538;2023-05-10T13:17:08;5.80;;;2.15;;
55150;SDS011;41041;43.162;20.538;2023-05-10T13:19:34;5.63;;;2.30;;
55150;SDS011;41041;43.162;20.538;2023-05-10T13:22:00;5.35;;;2.25;;
55150;SDS011;41041;43.162;20.538;2023-05-10T13:24:27;5.97;;;2.50;;
55150;SDS011;41041;43.162;20.538;2023-05-10T13:29:45;7.35;;;2.85;;
55150;SDS011;41041;43.162;20.538;2023-05-10T13:32:11;9.57;;;3.15;;
55150;SDS011;41041;43.162;20.538;2023-05-10T13:34:37;8.75;;;3.33;;
55150;SDS011;41041;43.162;20.538;2023-05-10T13:37:03;17.00;;;3.67;;
55150;SDS011;41041;43.162;20.538;2023-05-10T13:39:32;11.73;;;4.00;;
55150;SDS011;41041;43.162;20.538;2023-05-10T13:41:59;8.77;;;3.00;;
55150;SDS011;41041;43.162;20.538;2023-05-10T13:44:27;7.50;;;3.40;;
55150;SDS011;41041;43.162;20.538;2023-05-10T13:46:53;12.23;;;3.50;;
55150;SDS011;41041;43.162;20.538;2023-05-10T13:49:28;9.52;;;3.72;;
55150;SDS011;41041;43.162;20.538;2023-05-10T13:51:54;5.57;;;3.05;;
55150;SDS011;41041;43.162;20.538;2023-05-10T13:54:20;6.60;;;3.40;;
55150;SDS011;41041;43.162;20.538;2023-05-10T13:59:16;6.93;;;3.65;;
55150;SDS011;41041;43.162;20.538;2023-05-10T14:01:42;9.35;;;4.07;;
55150;SDS011;41041;43.162;20.538;2023-05-10T14:04:10;11.48;;;3.90;;
55150;SDS011;41041;43.162;20.538;2023-05-10T14:06:37;7.28;;;4.30;;
55150;SDS011;41041;43.162;20.538;2023-05-10T14:09:03;8.43;;;3.90;;
55150;SDS011;41041;43.162;20.538;2023-05-10T14:11:29;9.15;;;4.00;;
55150;SDS011;41041;43.162;20.538;2023-05-10T14:13:55;8.20;;;4.05;;
55150;SDS011;41041;43.162;20.538;2023-05-10T14:16:21;6.88;;;4.03;;
55150;SDS011;41041;43.162;20.538;2023-05-10T14:18:47;10.18;;;3.97;;
55150;SDS011;41041;43.162;20.538;2023-05-10T14:21:13;7.30;;;3.83;;
55150;SDS011;41041;43.162;20.538;2023-05-10T14:23:52;6.82;;;4.15;;
55150;SDS011;41041;43.162;20.538;2023-05-10T14:26:19;6.75;;;4.30;;
55150;SDS011;41041;43.162;20.538;2023-05-10T14:31:18;5.05;;;3.55;;
55150;SDS011;41041;43.162;20.538;2023-05-10T14:33:46;6.05;;;3.80;;
55150;SDS011;41041;43.162;20.538;2023-05-10T14:36:12;8.27;;;4.40;;
55150;SDS011;41041;43.162;20.538;2023-05-10T14:41:23;8.43;;;4.43;;
55150;SDS011;41041;43.162;20.538;2023-05-10T14:43:49;10.38;;;4.00;;
55150;SDS011;41041;43.162;20.538;2023-05-10T14:46:15;9.68;;;3.35;;
55150;SDS011;41041;43.162;20.538;2023-05-10T14:48:59;11.18;;;3.40;;
55150;SDS011;41041;43.162;20.538;2023-05-10T14:51:25;6.97;;;3.97;;
55150;SDS011;41041;43.162;20.538;2023-05-10T14:53:51;5.57;;;3.78;;
55150;SDS011;41041;43.162;20.538;2023-05-10T14:56:33;6.57;;;4.03;;
55150;SDS011;41041;43.162;20.538;2023-05-10T14:58:59;7.22;;;3.47;;
55150;SDS011;41041;43.162;20.538;2023-05-10T15:01:25;9.85;;;4.05;;
55150;SDS011;41041;43.162;20.538;2023-05-10T15:03:51;10.00;;;3.97;;
55150;SDS011;41041;43.162;20.538;2023-05-10T15:06:17;11.15;;;4.53;;
55150;SDS011;41041;43.162;20.538;2023-05-10T15:08:49;11.23;;;4.95;;
55150;SDS011;41041;43.162;20.538;2023-05-10T15:11:16;7.18;;;4.10;;
55150;SDS011;41041;43.162;20.538;2023-05-10T15:13:42;9.52;;;4.45;;
55150;SDS011;41041;43.162;20.538;2023-05-10T15:16:08;7.50;;;3.95;;
55150;SDS011;41041;43.162;20.538;2023-05-10T15:18:35;5.82;;;3.60;;
55150;SDS011;41041;43.162;20.538;2023-05-10T15:21:01;7.38;;;3.65;;
55150;SDS011;41041;43.162;20.538;2023-05-10T15:25:58;9.53;;;4.23;;
55150;SDS011;41041;43.162;20.538;2023-05-10T15:28:24;8.00;;;4.18;;
55150;SDS011;41041;43.162;20.538;2023-05-10T15:30:50;11.70;;;4.20;;
55150;SDS011;41041;43.162;20.538;2023-05-10T15:33:16;9.23;;;4.03;;
55150;SDS011;41041;43.162;20.538;2023-05-10T15:35:42;7.25;;;4.03;;
55150;SDS011;41041;43.162;20.538;2023-05-10T15:38:09;8.57;;;4.13;;
55150;SDS011;41041;43.162;20.538;2023-05-10T15:40:35;15.52;;;7.55;;
55150;SDS011;41041;43.162;20.538;2023-05-10T15:43:01;6.40;;;4.65;;
55150;SDS011;41041;43.162;20.538;2023-05-10T15:45:27;8.77;;;5.50;;
55150;SDS011;41041;43.162;20.538;2023-05-10T15:47:53;11.98;;;6.00;;
55150;SDS011;41041;43.162;20.538;2023-05-10T15:50:20;9.07;;;4.80;;
55150;SDS011;41041;43.162;20.538;2023-05-10T15:52:47;13.70;;;5.95;;
55150;SDS011;41041;43.162;20.538;2023-05-10T15:55:13;10.30;;;4.55;;
55150;SDS011;41041;43.162;20.538;2023-05-10T15:57:40;10.95;;;4.97;;
55150;SDS011;41041;43.162;20.538;2023-05-10T16:00:06;16.55;;;8.40;;
55150;SDS011;41041;43.162;20.538;2023-05-10T16:02:33;14.57;;;8.93;;
55150;SDS011;41041;43.162;20.538;2023-05-10T16:04:59;10.88;;;7.18;;
55150;SDS011;41041;43.162;20.538;2023-05-10T16:07:25;6.68;;;4.65;;
55150;SDS011;41041;43.162;20.538;2023-05-10T16:09:52;7.68;;;5.20;;
55150;SDS011;41041;43.162;20.538;2023-05-10T16:12:24;8.05;;;4.43;;
55150;SDS011;41041;43.162;20.538;2023-05-10T16:14:50;5.03;;;3.58;;
55150;SDS011;41041;43.162;20.538;2023-05-10T16:17:17;7.82;;;4.20;;
55150;SDS011;41041;43.162;20.538;2023-05-10T16:19:44;8.10;;;4.50;;
55150;SDS011;41041;43.162;20.538;2023-05-10T16:22:20;7.75;;;4.95;;
55150;SDS011;41041;43.162;20.538;2023-05-10T16:25:18;7.28;;;4.75;;